Time;durP1;ratioP1;P1;durP2;ratioP2;P2;SDS_P1;SDS_P2;PMS_P1;PMS_P2;Temp;Humidity;BMP_temperature;BMP_pressure;BME280_temperature;BME280_humidity;BME280_pressure;Samples;Min_cycle;Max_cycle;Signal;HPM_P1;HPM_P2
2022/06/06 00:01:44;;;;;;;11.10;5.68;;;16.30;99.90;;;-146.41;100.00;57768.22;4973884;28;20163;-69
2022/06/06 00:04:10;;;;;;;7.20;4.45;;;16.30;99.90;;;-146.41;100.00;57768.22;4986296;28;20066;-69
2022/06/06 00:06:39;;;;;;;6.88;4.97;;;16.40;99.90;;;-146.41;100.00;57768.22;4988925;28;20134;-70
2022/06/06 00:09:09;;;;;;;8.18;4.85;;;16.40;99.90;;;-146.41;100.00;57768.22;4987150;28;20058;-69
2022/06/06 00:11:37;;;;;;;5.50;4.10;;;16.30;99.90;;;-146.41;100.00;57768.22;4987149;28;20386;-69
2022/06/06 00:14:08;;;;;;;7.25;5.55;;;16.40;99.90;;;-146.41;100.00;57768.22;4985041;28;20121;-70
2022/06/06 00:16:38;;;;;;;8.20;4.95;;;16.30;99.90;;;-146.41;100.00;57768.22;4989692;28;20513;-69
2022/06/06 00:19:10;;;;;;;8.77;5.70;;;16.30;99.90;;;-146.41;100.00;57768.22;4986674;28;20050;-69
2022/06/06 00:21:39;;;;;;;10.25;6.80;;;16.30;99.90;;;-146.41;100.00;57768.22;4989508;28;20586;-69
2022/06/06 00:24:07;;;;;;;8.07;4.88;;;16.30;99.90;;;-146.41;100.00;57768.22;4986625;28;20066;-70
2022/06/06 00:26:35;;;;;;;5.82;4.40;;;16.30;99.90;;;-146.41;100.00;57768.22;4986073;28;20548;-69
2022/06/06 00:29:04;;;;;;;7.97;5.03;;;16.40;99.90;;;-146.41;100.00;57768.22;4988757;28;20054;-69
2022/06/06 00:37:09;;;;;;;9.73;5.32;;;16.40;99.90;;;-146.41;100.00;57768.22;4978834;28;20081;-69
2022/06/06 00:39:36;;;;;;;8.70;5.70;;;16.50;99.90;;;-146.41;100.00;57768.22;4991968;28;20133;-69
2022/06/06 00:42:38;;;;;;;8.90;5.45;;;16.60;99.90;;;-146.41;100.00;57768.22;4988345;28;20263;-70
2022/06/06 00:45:21;;;;;;;8.40;5.47;;;16.60;99.90;;;-146.41;100.00;57768.22;4991067;28;20062;-69
2022/06/06 00:48:36;;;;;;;17.05;6.32;;;16.60;99.90;;;-146.41;100.00;57768.22;4990338;28;20053;-69
2022/06/06 00:51:04;;;;;;;10.75;6.03;;;16.40;99.90;;;-146.41;100.00;57768.22;4985761;28;20070;-69
2022/06/06 00:53:54;;;;;;;10.45;6.53;;;16.40;99.90;;;-146.41;100.00;57768.22;4974569;28;20165;-69
2022/06/06 00:56:38;;;;;;;8.95;6.53;;;16.40;99.90;;;-146.41;100.00;57768.22;4990899;28;20558;-69
2022/06/06 00:59:12;;;;;;;7.32;5.80;;;16.50;99.90;;;-146.41;100.00;57768.22;4976512;28;20046;-70
2022/06/06 01:01:41;;;;;;;10.30;6.50;;;16.60;99.90;;;-146.41;100.00;57768.22;4979282;28;20161;-69
2022/06/06 01:04:11;;;;;;;12.45;8.18;;;16.60;99.90;;;-146.41;100.00;57768.22;4974256;28;20141;-69
2022/06/06 01:06:42;;;;;;;12.15;7.25;;;16.60;99.90;;;-146.41;100.00;57768.22;4992122;28;20508;-69
2022/06/06 01:09:10;;;;;;;11.63;7.35;;;16.50;99.90;;;-146.41;100.00;57768.22;4989807;28;20168;-69
2022/06/06 01:11:43;;;;;;;11.20;8.13;;;16.40;99.90;;;-146.41;100.00;57768.22;4977947;28;20046;-69
2022/06/06 01:14:17;;;;;;;12.38;7.35;;;16.40;99.90;;;-146.41;100.00;57768.22;4978800;28;20074;-69
2022/06/06 01:17:08;;;;;;;9.57;7.13;;;16.30;99.90;;;-146.41;100.00;57768.22;4978310;28;20077;-69
2022/06/06 01:19:54;;;;;;;12.25;8.00;;;16.30;99.90;;;-146.41;100.00;57768.22;4955414;28;20129;-69
2022/06/06 01:22:29;;;;;;;9.93;7.60;;;16.30;99.90;;;-146.41;100.00;57768.22;4987854;28;20104;-69
2022/06/06 01:25:21;;;;;;;13.82;8.73;;;16.20;99.90;;;-146.41;100.00;57768.22;4970284;28;20058;-69
2022/06/06 01:28:20;;;;;;;13.73;7.55;;;16.20;99.90;;;-146.41;100.00;57768.22;4986176;28;20077;-69
2022/06/06 01:30:54;;;;;;;13.38;8.75;;;16.10;99.90;;;-146.41;100.00;57768.22;4957463;28;20066;-69
2022/06/06 01:33:21;;;;;;;11.45;7.70;;;16.10;99.90;;;-146.41;100.00;57768.22;4988296;28;20188;-69
2022/06/06 01:35:52;;;;;;;14.52;10.13;;;16.10;99.90;;;-146.41;100.00;57768.22;4995343;28;20134;-69
2022/06/06 01:38:23;;;;;;;12.43;10.20;;;16.10;99.90;;;-146.41;100.00;57768.22;4990002;28;20053;-69
2022/06/06 01:41:28;;;;;;;12.85;10.05;;;16.20;99.90;;;-146.41;100.00;57768.22;4974320;28;20089;-69
2022/06/06 01:44:29;;;;;;;18.73;11.23;;;16.10;99.90;;;-146.41;100.00;57768.22;4960968;28;20145;-69
2022/06/06 01:47:00;;;;;;;16.13;11.25;;;16.00;99.90;;;-146.41;100.00;57768.22;4976601;28;20501;-69
2022/06/06 01:49:29;;;;;;;17.10;11.13;;;16.10;99.90;;;-146.41;100.00;57768.22;4973792;28;20410;-69
2022/06/06 01:52:05;;;;;;;16.00;10.85;;;16.10;99.90;;;-146.41;100.00;57768.22;4959801;28;20136;-69
2022/06/06 01:54:32;;;;;;;17.58;11.30;;;16.10;99.90;;;-146.41;100.00;57768.22;4974033;28;20504;-69
2022/06/06 01:57:02;;;;;;;16.08;11.38;;;16.10;99.90;;;-146.41;100.00;57768.22;4990109;28;20090;-69
2022/06/06 01:59:30;;;;;;;14.88;12.73;;;16.10;99.90;;;-146.41;100.00;57768.22;4989402;28;20070;-69
2022/06/06 02:01:56;;;;;;;13.60;10.45;;;16.00;99.90;;;-146.41;100.00;57768.22;4971970;28;20053;-69
2022/06/06 02:04:23;;;;;;;11.60;9.48;;;16.10;99.90;;;-146.41;100.00;57768.22;4986600;28;20172;-69
2022/06/06 02:06:51;;;;;;;18.40;11.57;;;16.10;99.90;;;-146.41;100.00;57768.22;4977479;28;20089;-69
2022/06/06 02:09:18;;;;;;;16.67;10.20;;;16.10;99.90;;;-146.41;100.00;57768.22;4995065;28;20129;-69
2022/06/06 02:11:45;;;;;;;12.90;10.80;;;16.10;99.90;;;-146.41;100.00;57768.22;4993782;28;20141;-69
2022/06/06 02:14:12;;;;;;;14.32;10.82;;;16.20;99.90;;;-146.41;100.00;57768.22;4993982;28;20054;-69
2022/06/06 02:16:41;;;;;;;12.32;9.65;;;16.20;99.90;;;-146.41;100.00;57768.22;4990908;28;20137;-69
2022/06/06 02:19:11;;;;;;;13.18;9.48;;;16.10;99.90;;;-146.41;100.00;57768.22;4991959;28;20047;-69
2022/06/06 02:21:38;;;;;;;15.98;9.55;;;16.10;99.90;;;-146.41;100.00;57768.22;4995707;28;20046;-69
2022/06/06 02:24:06;;;;;;;14.15;11.80;;;16.20;99.90;;;-146.41;100.00;57768.22;4993014;28;20144;-69
2022/06/06 02:26:33;;;;;;;13.23;9.68;;;16.20;99.90;;;-146.41;100.00;57768.22;4987616;28;20147;-69
2022/06/06 02:29:01;;;;;;;14.05;10.73;;;16.10;99.90;;;-146.41;100.00;57768.22;4993364;28;20058;-69
2022/06/06 02:31:28;;;;;;;15.52;10.48;;;16.20;99.90;;;-146.41;100.00;57768.22;4984395;28;20146;-69
2022/06/06 02:33:55;;;;;;;11.88;9.15;;;16.20;99.90;;;-146.41;100.00;57768.22;4988947;28;20167;-69
2022/06/06 02:36:22;;;;;;;13.07;8.82;;;16.20;99.90;;;-146.41;100.00;57768.22;4968863;28;20096;-69
2022/06/06 02:38:49;;;;;;;10.93;9.82;;;16.20;99.90;;;-146.41;100.00;57768.22;4989536;28;20053;-69
2022/06/06 02:41:17;;;;;;;12.68;9.90;;;16.20;99.90;;;-146.41;100.00;57768.22;4989951;28;20058;-69
2022/06/06 02:43:44;;;;;;;11.80;9.00;;;16.20;99.90;;;-146.41;100.00;57768.22;4973561;28;20148;-69
2022/06/06 02:46:13;;;;;;;12.15;10.85;;;16.10;99.90;;;-146.41;100.00;57768.22;4993725;28;20050;-69
2022/06/06 02:48:40;;;;;;;12.90;9.18;;;16.20;99.90;;;-146.41;100.00;57768.22;4991572;28;20105;-69
2022/06/06 02:51:08;;;;;;;15.15;9.70;;;16.10;99.90;;;-146.41;100.00;57768.22;4972318;28;20516;-69
2022/06/06 02:53:34;;;;;;;11.75;9.88;;;16.10;99.90;;;-146.41;100.00;57768.22;4987515;28;20485;-69
2022/06/06 02:56:02;;;;;;;12.85;8.15;;;16.10;99.90;;;-146.41;100.00;57768.22;4992146;28;20085;-69
2022/06/06 02:58:30;;;;;;;11.40;9.02;;;16.10;99.90;;;-146.41;100.00;57768.22;4991216;28;20161;-69
2022/06/06 03:01:05;;;;;;;14.10;8.73;;;16.10;99.90;;;-146.41;100.00;57768.22;4991702;28;20164;-69
2022/06/06 03:03:34;;;;;;;15.25;9.77;;;16.10;99.90;;;-146.41;100.00;57768.22;4988179;28;20126;-69
2022/06/06 03:06:25;;;;;;;10.05;7.57;;;16.10;99.90;;;-146.41;100.00;57768.22;4991311;28;20109;-69
2022/06/06 03:09:10;;;;;;;11.43;8.25;;;16.10;99.90;;;-146.41;100.00;57768.22;4968099;28;20153;-69
2022/06/06 03:12:20;;;;;;;15.77;9.20;;;16.10;99.90;;;-146.41;100.00;57768.22;4988947;28;20551;-69
2022/06/06 03:15:10;;;;;;;12.50;8.55;;;16.10;99.90;;;-146.41;100.00;57768.22;4990213;28;20141;-69
2022/06/06 03:21:28;;;;;;;12.23;8.27;;;16.10;99.90;;;-146.41;100.00;57768.22;4976738;28;20076;-69
2022/06/06 03:24:38;;;;;;;15.25;8.43;;;16.00;99.90;;;-146.41;100.00;57768.22;4971018;28;20092;-69
2022/06/06 03:27:33;;;;;;;14.40;8.77;;;16.00;99.90;;;-146.41;100.00;57768.22;4973576;28;20548;-69
2022/06/06 03:30:32;;;;;;;11.15;8.23;;;16.00;99.90;;;-146.41;100.00;57768.22;4989793;28;20137;-69
2022/06/06 03:33:19;;;;;;;11.98;7.78;;;16.00;99.90;;;-146.41;100.00;57768.22;4974608;28;20096;-69
2022/06/06 03:36:25;;;;;;;10.80;8.43;;;16.00;99.90;;;-146.41;100.00;57768.22;4974986;28;20125;-69
2022/06/06 03:39:18;;;;;;;11.43;8.80;;;16.00;99.90;;;-146.41;100.00;57768.22;4987897;28;20046;-69
2022/06/06 03:42:01;;;;;;;12.77;7.88;;;15.90;99.90;;;-146.41;100.00;57768.22;4986750;28;20058;-69
2022/06/06 03:44:56;;;;;;;11.68;7.57;;;16.00;99.90;;;-146.41;100.00;57768.22;4969668;28;20077;-69
2022/06/06 03:47:38;;;;;;;10.23;8.05;;;16.00;99.90;;;-146.41;100.00;57768.22;4971322;28;20374;-69
2022/06/06 03:50:24;;;;;;;13.40;8.02;;;16.00;99.90;;;-146.41;100.00;57768.22;4970701;28;20107;-69
2022/06/06 03:53:02;;;;;;;12.60;8.50;;;16.00;99.90;;;-146.41;100.00;57768.22;4988666;28;20053;-69
2022/06/06 03:56:00;;;;;;;17.75;8.65;;;16.00;99.90;;;-146.41;100.00;57768.22;4973448;28;20509;-69
2022/06/06 03:58:31;;;;;;;10.20;7.72;;;15.90;99.90;;;-146.41;100.00;57768.22;4985431;28;20456;-69
2022/06/06 04:01:06;;;;;;;12.00;8.80;;;15.90;99.90;;;-146.41;100.00;57768.22;4989696;28;20054;-70
2022/06/06 04:03:35;;;;;;;10.85;7.78;;;15.90;99.90;;;-146.41;100.00;57768.22;4971817;28;20065;-69
2022/06/06 04:06:04;;;;;;;13.45;7.45;;;15.90;99.90;;;-146.41;100.00;57768.22;4993156;28;20137;-69
2022/06/06 04:08:32;;;;;;;16.10;9.70;;;15.90;99.90;;;-146.41;100.00;57768.22;4989583;28;20056;-69
2022/06/06 04:11:29;;;;;;;18.10;9.35;;;15.90;99.90;;;-146.41;100.00;57768.22;4991310;28;20050;-70
2022/06/06 04:14:15;;;;;;;12.23;9.50;;;15.90;99.90;;;-146.41;100.00;57768.22;4991694;28;20046;-69
2022/06/06 04:16:51;;;;;;;10.75;7.65;;;15.80;99.90;;;-146.41;100.00;57768.22;4991098;28;20057;-69
2022/06/06 04:19:30;;;;;;;9.90;7.60;;;15.80;99.90;;;-146.41;100.00;57768.22;4989418;28;20038;-69
2022/06/06 04:22:29;;;;;;;17.42;8.45;;;15.90;99.90;;;-146.41;100.00;57768.22;4993857;28;20081;-69
2022/06/06 04:25:19;;;;;;;11.10;7.93;;;15.90;99.90;;;-146.41;100.00;57768.22;4976997;28;20409;-69
2022/06/06 04:28:12;;;;;;;10.85;8.68;;;16.00;99.90;;;-146.41;100.00;57768.22;4975672;28;20070;-69
2022/06/06 04:31:03;;;;;;;10.85;7.20;;;15.90;99.90;;;-146.41;100.00;57768.22;4992780;28;20137;-69
2022/06/06 04:33:58;;;;;;;9.82;8.30;;;16.00;99.90;;;-146.41;100.00;57768.22;4988836;28;20152;-69
2022/06/06 04:36:41;;;;;;;12.48;7.85;;;16.00;99.90;;;-146.41;100.00;57768.22;4978813;28;20531;-70
2022/06/06 04:39:42;;;;;;;15.40;7.00;;;16.00;99.90;;;-146.41;100.00;57768.22;4990729;28;20153;-69
2022/06/06 04:42:38;;;;;;;10.32;8.70;;;16.00;99.90;;;-146.41;100.00;57768.22;4984954;28;20046;-70
2022/06/06 04:45:18;;;;;;;8.48;7.20;;;16.00;99.90;;;-146.41;100.00;57768.22;4974981;28;20137;-69
2022/06/06 04:47:47;;;;;;;15.07;9.57;;;16.00;99.90;;;-146.41;100.00;57768.22;4992311;28;20054;-69
2022/06/06 04:50:19;;;;;;;10.65;7.43;;;16.00;99.90;;;-146.41;100.00;57768.22;4973626;28;20124;-69
2022/06/06 04:52:56;;;;;;;13.07;9.07;;;16.10;99.90;;;-146.41;100.00;57768.22;4990022;28;20548;-69
2022/06/06 04:55:26;;;;;;;14.05;8.38;;;16.10;99.90;;;-146.41;100.00;57768.22;4973662;28;20405;-69
2022/06/06 04:57:56;;;;;;;11.55;8.98;;;16.00;99.90;;;-146.41;100.00;57768.22;4992070;28;20133;-69
2022/06/06 05:00:24;;;;;;;12.00;7.57;;;16.20;99.90;;;-146.41;100.00;57768.22;4990043;28;20197;-69
2022/06/06 05:02:52;;;;;;;8.93;6.43;;;16.30;99.90;;;-146.41;100.00;57768.22;4994070;28;20054;-69
2022/06/06 05:05:22;;;;;;;14.43;8.45;;;16.40;99.90;;;-146.41;100.00;57768.22;4992497;28;20049;-69
2022/06/06 05:08:42;;;;;;;10.35;7.47;;;16.50;99.90;;;-146.41;100.00;57768.22;4989483;28;20094;-69
2022/06/06 05:11:27;;;;;;;13.27;6.97;;;16.30;99.90;;;-146.41;100.00;57768.22;4993381;28;20056;-69
2022/06/06 05:14:35;;;;;;;14.00;8.05;;;16.30;99.90;;;-146.41;100.00;57768.22;4987802;28;20058;-69
2022/06/06 05:17:21;;;;;;;13.25;9.27;;;16.30;99.90;;;-146.41;100.00;57768.22;4985692;28;20092;-69
2022/06/06 05:20:09;;;;;;;11.00;8.90;;;16.20;99.90;;;-146.41;100.00;57768.22;4991441;28;20180;-69
2022/06/06 05:23:21;;;;;;;14.65;8.70;;;16.20;99.90;;;-146.41;100.00;57768.22;4991697;28;20050;-69
2022/06/06 05:26:00;;;;;;;10.25;7.75;;;16.10;99.90;;;-146.41;100.00;57768.22;4991329;28;20154;-70
2022/06/06 05:28:57;;;;;;;9.13;7.95;;;16.10;99.90;;;-146.41;100.00;57768.22;4992459;28;20080;-70
2022/06/06 05:32:03;;;;;;;11.82;9.23;;;16.00;99.90;;;-146.41;100.00;57768.22;4978537;28;20137;-69
2022/06/06 05:34:46;;;;;;;11.95;8.73;;;16.10;99.90;;;-146.41;100.00;57768.22;4974727;28;20078;-69
2022/06/06 05:37:28;;;;;;;13.45;8.77;;;16.10;99.90;;;-146.41;100.00;57768.22;4955715;28;20097;-69
2022/06/06 05:40:13;;;;;;;13.10;9.13;;;16.00;99.90;;;-146.41;100.00;57768.22;4988273;28;20137;-70
2022/06/06 05:43:10;;;;;;;11.85;7.55;;;16.00;99.90;;;-146.41;100.00;57768.22;4992723;28;20077;-69
2022/06/06 05:46:05;;;;;;;14.02;8.48;;;16.00;99.90;;;-146.41;100.00;57768.22;4992229;28;20390;-69
2022/06/06 05:49:07;;;;;;;14.48;7.57;;;16.00;99.90;;;-146.41;100.00;57768.22;4984771;28;20734;-69
2022/06/06 05:52:20;;;;;;;12.55;7.53;;;16.10;99.90;;;-146.41;100.00;57768.22;4985368;28;20158;-69
2022/06/06 05:55:24;;;;;;;10.32;6.82;;;16.20;99.90;;;-146.41;100.00;57768.22;4957947;28;20450;-70
2022/06/06 05:58:28;;;;;;;8.77;7.22;;;16.30;99.90;;;-146.41;100.00;57768.22;4991396;28;20461;-69
2022/06/06 06:01:22;;;;;;;13.63;7.95;;;16.30;99.90;;;-146.41;100.00;57768.22;4992334;28;20115;-69
2022/06/06 06:04:29;;;;;;;10.43;7.65;;;16.20;99.90;;;-146.41;100.00;57768.22;4986005;28;20068;-69
2022/06/06 06:07:25;;;;;;;10.30;8.23;;;16.30;99.90;;;-146.41;100.00;57768.22;4989954;28;20130;-69
2022/06/06 06:10:31;;;;;;;12.63;7.60;;;16.30;99.90;;;-146.41;100.00;57768.22;4985229;28;20057;-69
2022/06/06 06:13:11;;;;;;;12.50;6.80;;;16.30;99.90;;;-146.41;100.00;57768.22;4993201;28;20110;-69
2022/06/06 06:15:42;;;;;;;9.45;7.03;;;16.30;99.90;;;-146.41;100.00;57768.22;4987971;28;20692;-69
2022/06/06 06:18:29;;;;;;;9.73;6.93;;;16.40;99.90;;;-146.41;100.00;57768.22;4990736;28;20507;-69
2022/06/06 06:21:19;;;;;;;12.65;6.10;;;16.50;99.90;;;-146.41;100.00;57768.22;4973061;28;20476;-69
2022/06/06 06:24:01;;;;;;;12.02;6.80;;;16.60;99.90;;;-146.41;100.00;57768.22;4971566;28;20050;-69
2022/06/06 06:26:30;;;;;;;9.20;6.75;;;16.60;99.90;;;-146.41;100.00;57768.22;4970210;28;20065;-69
2022/06/06 06:29:05;;;;;;;7.78;6.20;;;16.60;99.90;;;-146.41;100.00;57768.22;4987815;28;20057;-69
2022/06/06 06:32:00;;;;;;;8.63;6.18;;;16.60;99.90;;;-146.41;100.00;57768.22;4991675;28;20078;-69
2022/06/06 06:34:56;;;;;;;9.55;6.97;;;16.70;99.90;;;-146.41;100.00;57768.22;4991661;28;20053;-69
2022/06/06 06:37:45;;;;;;;8.85;5.93;;;16.70;99.90;;;-146.41;100.00;57768.22;4990008;28;20081;-69
2022/06/06 06:40:23;;;;;;;8.57;5.90;;;16.70;99.90;;;-146.41;100.00;57768.22;4992320;28;20357;-69
2022/06/06 06:43:10;;;;;;;9.18;6.38;;;16.60;99.90;;;-146.41;100.00;57768.22;4971180;28;20053;-69
2022/06/06 06:45:45;;;;;;;10.68;6.53;;;16.50;99.90;;;-146.41;100.00;57768.22;4984955;28;20043;-69
2022/06/06 06:48:39;;;;;;;8.25;6.15;;;16.50;99.90;;;-146.41;100.00;57768.22;4971121;28;20042;-69
2022/06/06 06:51:26;;;;;;;10.73;6.88;;;16.60;99.90;;;-146.41;100.00;57768.22;4990828;28;20465;-69
2022/06/06 06:54:07;;;;;;;8.27;5.97;;;16.70;99.90;;;-146.41;100.00;57768.22;4975495;28;20126;-69
2022/06/06 06:56:56;;;;;;;9.32;6.38;;;16.60;99.90;;;-146.41;100.00;57768.22;4992205;28;20050;-69
2022/06/06 07:00:03;;;;;;;7.57;5.97;;;16.60;99.90;;;-146.41;100.00;57768.22;4977496;28;20192;-69
2022/06/06 07:09:11;;;;;;;8.32;6.00;;;16.70;99.90;;;-146.41;100.00;57768.22;4990863;28;20069;-69
2022/06/06 07:12:03;;;;;;;11.25;6.88;;;16.80;99.90;;;-146.41;100.00;57768.22;4978737;28;20097;-69
2022/06/06 07:15:19;;;;;;;8.23;5.32;;;16.90;99.90;;;-146.41;100.00;57768.22;4990845;28;20837;-69
2022/06/06 07:17:52;;;;;;;7.35;5.80;;;17.10;99.90;;;-146.41;100.00;57768.22;4991605;28;20287;-69
2022/06/06 07:20:21;;;;;;;9.80;5.68;;;17.40;99.90;;;-146.41;100.00;57768.22;4988006;28;20136;-69
2022/06/06 07:23:04;;;;;;;6.60;4.85;;;17.70;99.90;;;-146.41;100.00;57768.22;4995307;28;20084;-69
2022/06/06 07:25:48;;;;;;;9.10;5.10;;;17.90;99.90;;;-146.41;100.00;57768.22;4980768;28;20096;-69
2022/06/06 07:28:21;;;;;;;8.88;4.95;;;18.00;99.90;;;-146.41;100.00;57768.22;4989937;28;20085;-69
2022/06/06 07:31:12;;;;;;;6.45;4.75;;;18.10;99.90;;;-146.41;100.00;57768.22;4993018;28;20119;-69
2022/06/06 07:34:15;;;;;;;10.27;5.18;;;18.20;99.90;;;-146.41;100.00;57768.22;4987977;28;20049;-69
2022/06/06 07:37:07;;;;;;;10.20;4.93;;;18.30;99.90;;;-146.41;100.00;57768.22;4975643;28;20509;-69
2022/06/06 07:40:08;;;;;;;6.65;4.57;;;18.60;99.90;;;-146.41;100.00;57768.22;4992370;28;20081;-69
2022/06/06 07:43:14;;;;;;;5.93;4.20;;;18.70;99.90;;;-146.41;100.00;57768.22;4974592;28;20125;-69
2022/06/06 07:45:51;;;;;;;4.85;3.70;;;19.10;99.90;;;-146.41;100.00;57768.22;4943572;28;20062;-69
2022/06/06 07:49:03;;;;;;;9.20;4.43;;;19.20;99.90;;;-146.41;100.00;57768.22;4987986;28;20050;-69
2022/06/06 07:52:04;;;;;;;7.90;4.53;;;19.10;99.90;;;-146.41;100.00;57768.22;4935616;28;20051;-70
2022/06/06 07:54:53;;;;;;;6.07;4.38;;;18.90;99.90;;;-146.41;100.00;57768.22;4989550;28;20160;-69
2022/06/06 07:57:50;;;;;;;9.20;4.20;;;19.30;99.90;;;-146.41;100.00;57768.22;4986089;28;20054;-69
2022/06/06 08:00:25;;;;;;;8.45;3.78;;;19.50;99.90;;;-146.41;100.00;57768.22;4985258;28;20575;-70
2022/06/06 08:03:17;;;;;;;6.80;3.70;;;19.40;99.90;;;-146.41;100.00;57768.22;4985606;28;20117;-69
2022/06/06 08:06:17;;;;;;;6.05;3.25;;;19.40;99.90;;;-146.41;100.00;57768.22;4976127;28;20412;-70
2022/06/06 08:08:50;;;;;;;6.47;2.97;;;;;;;-146.41;100.00;57768.22;4988530;28;20053;-70
2022/06/06 08:12:05;;;;;;;5.22;3.20;;;19.90;99.90;;;-146.41;100.00;57768.22;4990030;28;20312;-70
2022/06/06 08:15:23;;;;;;;8.27;3.30;;;19.80;99.90;;;-146.41;100.00;57768.22;4887535;29;20135;-69
2022/06/06 08:18:26;;;;;;;5.72;3.63;;;19.70;99.90;;;-146.41;100.00;57768.22;4993424;28;20187;-70
2022/06/06 08:21:23;;;;;;;7.13;3.30;;;19.70;99.90;;;-146.41;100.00;57768.22;4988718;28;20061;-69
2022/06/06 08:23:59;;;;;;;4.78;2.70;;;19.90;99.90;;;-146.41;100.00;57768.22;4985205;28;20468;-69
2022/06/06 08:26:27;;;;;;;7.88;3.17;;;19.90;99.90;;;-146.41;100.00;57768.22;4965314;28;20088;-69
2022/06/06 08:28:55;;;;;;;6.50;2.92;;;19.90;99.90;;;-146.41;100.00;57768.22;4977154;28;20145;-70
2022/06/06 08:31:22;;;;;;;4.78;2.67;;;19.80;99.90;;;-146.41;100.00;57768.22;4982389;28;20085;-70
2022/06/06 08:33:49;;;;;;;5.38;2.45;;;19.60;99.90;;;-146.41;100.00;57768.22;4986840;28;20089;-69
2022/06/06 08:36:41;;;;;;;6.45;3.20;;;19.50;99.90;;;-146.41;100.00;57768.22;4983644;28;20137;-70
2022/06/06 08:39:19;;;;;;;4.82;2.75;;;19.40;99.90;;;-146.41;100.00;57768.22;4984621;28;20053;-69
2022/06/06 08:42:23;;;;;;;5.90;2.80;;;19.20;99.90;;;-146.41;100.00;57768.22;4987950;28;20096;-69
2022/06/06 08:45:08;;;;;;;5.82;3.40;;;19.00;99.90;;;-146.41;100.00;57768.22;4983373;28;20520;-70
2022/06/06 08:48:02;;;;;;;4.20;2.85;;;18.70;99.90;;;-146.41;100.00;57768.22;4986794;28;20049;-70
2022/06/06 08:50:50;;;;;;;7.05;3.92;;;18.50;99.90;;;-146.41;100.00;57768.22;4982391;28;20393;-70
2022/06/06 08:53:48;;;;;;;5.40;3.00;;;18.50;99.90;;;-146.41;100.00;57768.22;4988391;28;20047;-69
2022/06/06 08:57:17;;;;;;;3.95;2.90;;;18.50;99.90;;;-146.41;100.00;57768.22;4986721;28;20133;-70
2022/06/06 09:00:16;;;;;;;6.82;3.20;;;18.70;99.90;;;-146.41;100.00;57768.22;4962157;28;20054;-69
2022/06/06 09:03:35;;;;;;;4.13;3.13;;;18.80;99.90;;;-146.41;100.00;57768.22;4981860;28;20061;-70
2022/06/06 09:06:41;;;;;;;5.05;2.30;;;19.20;99.90;;;-146.41;100.00;57768.22;4969675;28;20839;-70
2022/06/06 09:09:50;;;;;;;4.18;2.58;;;19.70;99.90;;;-146.41;100.00;57768.22;4991040;28;20070;-69
2022/06/06 09:12:46;;;;;;;4.28;1.67;;;19.80;99.90;;;-146.41;100.00;57768.22;4987629;28;20042;-70
2022/06/06 09:15:34;;;;;;;6.55;1.67;;;20.00;99.90;;;-146.41;100.00;57768.22;4961695;28;20050;-69
2022/06/06 09:18:47;;;;;;;6.45;2.53;;;19.90;99.90;;;-146.41;100.00;57768.22;4987637;28;20500;-69
2022/06/06 09:21:34;;;;;;;4.20;1.95;;;20.40;99.90;;;-146.41;100.00;57768.22;4987711;28;21988;-70
2022/06/06 09:24:19;;;;;;;2.40;1.67;;;20.80;99.90;;;-146.41;100.00;57768.22;4989010;28;20082;-70
2022/06/06 09:27:32;;;;;;;2.42;1.40;;;20.70;99.90;;;-146.41;100.00;57768.22;4988593;28;20072;-70
2022/06/06 09:30:11;;;;;;;3.05;1.42;;;20.70;99.90;;;-146.41;100.00;57768.22;4964404;28;20058;-69
2022/06/06 09:32:56;;;;;;;4.72;1.38;;;20.70;99.90;;;-146.41;100.00;57768.22;4986374;28;20164;-69
2022/06/06 09:35:53;;;;;;;4.07;1.27;;;;;;;-146.41;100.00;57768.22;4985834;28;20128;-70
2022/06/06 09:39:24;;;;;;;1.60;0.90;;;21.30;99.90;;;-146.41;100.00;57768.22;4986124;28;20138;-70
2022/06/06 09:42:37;;;;;;;5.07;1.63;;;21.30;99.90;;;-146.41;100.00;57768.22;4852673;29;20080;-70
2022/06/06 09:45:57;;;;;;;4.38;1.70;;;21.50;99.90;;;-146.41;100.00;57768.22;4987425;28;20142;-70
2022/06/06 09:49:01;;;;;;;5.07;2.50;;;21.40;99.90;;;-146.41;100.00;57768.22;4966885;28;20067;-70
2022/06/06 09:52:12;;;;;;;12.15;1.60;;;21.90;99.90;;;-146.41;100.00;57768.22;4988337;28;20050;-70
2022/06/06 10:01:47;;;;;;;5.22;1.70;;;20.90;99.90;;;-146.41;100.00;57768.22;4989333;28;20133;-68
2022/06/06 10:04:59;;;;;;;3.38;1.50;;;20.70;99.90;;;-146.41;100.00;57768.22;4971911;28;20053;-68
2022/06/06 10:08:10;;;;;;;4.13;1.17;;;21.10;99.90;;;-146.41;100.00;57768.22;4947281;28;20058;-70
2022/06/06 10:11:47;;;;;;;7.43;1.40;;;21.10;99.90;;;-146.41;100.00;57768.22;4970412;28;20088;-68
2022/06/06 10:14:29;;;;;;;4.10;0.90;;;21.90;99.90;;;-146.41;100.00;57768.22;4869655;28;20144;-69
2022/06/06 10:17:26;;;;;;;5.50;1.27;;;22.20;99.90;;;-146.41;100.00;57768.22;4981920;28;20072;-68
2022/06/06 10:20:05;;;;;;;2.63;1.15;;;;;;;-146.41;100.00;57768.22;4984249;28;20077;-69
2022/06/06 10:22:34;;;;;;;3.97;1.40;;;21.20;99.90;;;-146.41;100.00;57768.22;4989424;28;20046;-68
2022/06/06 10:25:29;;;;;;;4.15;1.38;;;21.00;99.90;;;-146.41;100.00;57768.22;4987383;28;20129;-69
2022/06/06 10:28:21;;;;;;;6.57;1.17;;;21.00;99.90;;;-146.41;100.00;57768.22;4968399;28;20068;-71
2022/06/06 10:31:42;;;;;;;7.18;1.50;;;21.40;99.90;;;-146.41;100.00;57768.22;4986162;28;20295;-68
2022/06/06 10:34:37;;;;;;;5.82;1.30;;;21.70;99.90;;;-146.41;100.00;57768.22;4967143;28;20089;-69
2022/06/06 10:37:41;;;;;;;3.83;1.15;;;22.00;99.90;;;-146.41;100.00;57768.22;4985135;28;20152;-69
2022/06/06 10:40:32;;;;;;;2.95;1.10;;;22.20;99.90;;;-146.41;100.00;57768.22;4985771;28;20307;-69
2022/06/06 10:43:35;;;;;;;3.58;1.15;;;22.10;99.90;;;-146.41;100.00;57768.22;4987001;28;20657;-66
2022/06/06 10:46:17;;;;;;;4.80;1.10;;;22.70;99.90;;;-146.41;100.00;57768.22;4970986;28;20053;-67
2022/06/06 10:49:08;;;;;;;4.15;1.10;;;22.70;99.90;;;-146.41;100.00;57768.22;4989680;28;20050;-68
2022/06/06 10:52:04;;;;;;;3.45;1.00;;;22.70;99.90;;;-146.41;100.00;57768.22;4991406;28;20133;-67
2022/06/06 10:55:38;;;;;;;3.85;1.00;;;22.20;99.90;;;-146.41;100.00;57768.22;4986669;28;20081;-67
2022/06/06 10:58:35;;;;;;;3.50;1.15;;;22.50;99.90;;;-146.41;100.00;57768.22;4940637;28;20156;-70
2022/06/06 11:01:51;;;;;;;4.85;1.00;;;;;;;-146.41;100.00;57768.22;4985842;28;20054;-70
2022/06/06 11:04:56;;;;;;;3.80;0.90;;;23.50;99.90;;;-146.41;100.00;57768.22;4988640;28;20524;-68
2022/06/06 11:08:30;;;;;;;13.50;1.40;;;22.70;99.90;;;-146.41;100.00;57768.22;4986312;28;20074;-67
2022/06/06 11:11:23;;;;;;;4.20;0.90;;;22.30;99.90;;;-146.41;100.00;57768.22;4936107;28;20121;-68
2022/06/06 11:14:21;;;;;;;4.65;0.95;;;23.00;99.90;;;-146.41;100.00;57768.22;4985477;28;20047;-67
2022/06/06 11:16:58;;;;;;;4.75;0.95;;;23.70;99.90;;;-146.41;100.00;57768.22;4966988;28;20465;-69
2022/06/06 11:20:09;;;;;;;2.58;0.80;;;24.00;99.90;;;-146.41;100.00;57768.22;4946993;28;20528;-67
2022/06/06 11:22:43;;;;;;;4.63;0.70;;;23.90;99.90;;;-146.41;100.00;57768.22;4983895;28;20174;-67
2022/06/06 11:25:52;;;;;;;2.03;0.60;;;23.30;99.90;;;-146.41;100.00;57768.22;4987644;28;20050;-67
2022/06/06 11:28:56;;;;;;;1.70;0.50;;;23.00;99.90;;;-146.41;100.00;57768.22;4974166;28;20195;-66
2022/06/06 11:31:47;;;;;;;3.67;0.70;;;22.90;99.90;;;-146.41;100.00;57768.22;4984088;28;20492;-67
2022/06/06 11:34:34;;;;;;;2.50;0.60;;;23.20;99.90;;;-146.41;100.00;57768.22;4986833;28;20038;-68
2022/06/06 11:37:34;;;;;;;3.15;0.73;;;22.80;99.90;;;-146.41;100.00;57768.22;4988901;28;20610;-67
2022/06/06 11:40:16;;;;;;;2.75;0.50;;;22.70;99.90;;;-146.41;100.00;57768.22;4955400;28;20117;-68